createdAt,value
2018-05-07T00:00:11.677Z,48.60
2018-05-07T00:02:41.825Z,48.70
2018-05-07T00:05:12.203Z,48.70
2018-05-07T00:07:42.208Z,48.70
2018-05-07T00:10:11.925Z,48.70
2018-05-07T00:12:42.252Z,48.90
2018-05-07T00:15:12.303Z,49.30
2018-05-07T00:17:42.569Z,49.20
2018-05-07T00:20:13.186Z,49.30
2018-05-07T00:22:44.133Z,49.40
2018-05-07T00:25:14.993Z,49.40
2018-05-07T00:27:45.888Z,49.50
2018-05-07T00:30:16.792Z,49.70
2018-05-07T00:32:47.517Z,49.50
2018-05-07T00:35:18.196Z,49.50
2018-05-07T00:37:48.476Z,49.50
2018-05-07T00:40:19.109Z,49.70
2018-05-07T00:42:49.261Z,49.60
2018-05-07T00:45:19.848Z,49.90
2018-05-07T00:47:50.438Z,50.10
2018-05-07T00:50:20.545Z,50.10
2018-05-07T00:52:50.793Z,50.00
2018-05-07T00:55:23.482Z,50.10
2018-05-07T00:57:53.494Z,50.00
2018-05-07T01:00:23.696Z,50.50
2018-05-07T01:02:53.917Z,50.20
2018-05-07T01:05:24.669Z,50.30
2018-05-07T01:07:55.173Z,50.30
2018-05-07T01:10:25.566Z,50.30
2018-05-07T01:12:56.437Z,50.40
2018-05-07T01:15:26.477Z,50.70
2018-05-07T01:17:57.097Z,50.60
2018-05-07T01:20:28.060Z,50.70
2018-05-07T01:22:59.617Z,50.70
2018-05-07T01:25:29.317Z,50.60
2018-05-07T01:27:59.309Z,50.80
2018-05-07T01:30:29.353Z,51.00
2018-05-07T01:32:59.043Z,51.00
2018-05-07T01:35:29.389Z,51.10
2018-05-07T01:38:00.301Z,51.00
2018-05-07T01:40:31.929Z,51.10
2018-05-07T01:43:02.656Z,51.20
2018-05-07T01:45:32.513Z,51.10
2018-05-07T01:48:04.277Z,52.10
2018-05-07T01:50:35.174Z,51.30
2018-05-07T01:53:05.494Z,51.40
2018-05-07T01:55:35.461Z,51.60
2018-05-07T01:58:05.485Z,51.40
2018-05-07T02:00:36.118Z,51.30
2018-05-07T02:03:08.129Z,51.80
2018-05-07T02:05:38.101Z,51.20
2018-05-07T02:08:07.865Z,51.30
2018-05-07T02:10:37.933Z,51.40
2018-05-07T02:13:07.919Z,51.40
2018-05-07T02:15:38.177Z,51.50
2018-05-07T02:18:08.162Z,51.30
2018-05-07T02:20:38.217Z,52.00
2018-05-07T02:23:07.904Z,51.60
2018-05-07T02:25:38.840Z,51.70
2018-05-07T02:28:10.049Z,52.40
2018-05-07T02:30:40.119Z,50.70
2018-05-07T02:33:09.847Z,52.10
2018-05-07T02:35:39.959Z,52.30
2018-05-07T02:38:11.932Z,53.20
2018-05-07T02:40:42.199Z,53.00
2018-05-07T02:43:12.283Z,53.40
2018-05-07T02:45:41.962Z,53.70
2018-05-07T02:48:11.696Z,53.90
2018-05-07T02:50:41.812Z,54.10
2018-05-07T02:53:11.937Z,54.60
2018-05-07T02:55:41.644Z,57.10
2018-05-07T02:58:12.282Z,55.50
2018-05-07T03:00:42.918Z,55.80
2018-05-07T03:03:13.628Z,56.10
2018-05-07T03:05:43.766Z,56.40
2018-05-07T03:08:13.884Z,56.80
2018-05-07T03:10:43.888Z,57.10
2018-05-07T03:13:14.341Z,60.10
2018-05-07T03:15:44.012Z,57.60
2018-05-07T03:18:13.723Z,57.80
2018-05-07T03:20:43.969Z,58.10
2018-05-07T03:23:15.339Z,58.60
2018-05-07T03:25:45.131Z,58.80
2018-05-07T03:28:15.281Z,59.10
2018-05-07T03:30:45.387Z,59.50
2018-05-07T03:33:16.116Z,59.80
2018-05-07T03:35:46.838Z,60.10
2018-05-07T03:38:16.911Z,60.50
2018-05-07T03:40:47.119Z,60.60
2018-05-07T03:43:16.891Z,60.50
2018-05-07T03:45:46.963Z,60.60
2018-05-07T03:48:17.023Z,60.90
2018-05-07T03:50:48.007Z,61.10
2018-05-07T03:53:17.822Z,61.20
2018-05-07T03:55:47.960Z,61.30
2018-05-07T03:58:18.039Z,61.60
2018-05-07T04:00:48.810Z,61.70
2018-05-07T04:03:19.090Z,62.00
2018-05-07T04:05:49.603Z,62.40
2018-05-07T04:08:19.412Z,62.50
2018-05-07T04:10:50.075Z,62.50
2018-05-07T04:13:20.461Z,62.50
2018-05-07T04:15:51.268Z,63.50
2018-05-07T04:19:31.903Z,63.00
2018-05-07T04:22:10.923Z,63.10
2018-05-07T04:24:41.443Z,63.70
2018-05-07T04:27:11.627Z,64.10
2018-05-07T04:29:43.736Z,64.20
2018-05-07T04:32:13.866Z,64.50
2018-05-07T04:34:43.984Z,64.20
2018-05-07T04:37:14.111Z,63.40
2018-05-07T04:39:43.816Z,63.40
2018-05-07T04:42:15.072Z,61.90
2018-05-07T04:44:46.774Z,60.60
2018-05-07T04:47:17.614Z,59.00
2018-05-07T04:49:47.937Z,58.00
2018-05-07T04:52:18.714Z,55.00
2018-05-07T04:54:48.840Z,56.40
2018-05-07T04:57:18.960Z,55.60
2018-05-07T04:59:49.900Z,54.80
2018-05-07T05:02:20.524Z,54.20
2018-05-07T05:04:51.217Z,53.40
2018-05-07T05:07:21.387Z,50.60
2018-05-07T05:09:51.723Z,46.60
2018-05-07T05:12:22.125Z,42.90
2018-05-07T05:14:53.420Z,39.40
2018-05-07T05:17:23.603Z,35.90
2018-05-07T05:19:54.517Z,33.00
2018-05-07T05:22:25.184Z,30.80
2018-05-07T05:24:56.409Z,29.50
2018-05-07T05:27:26.213Z,29.30
2018-05-07T05:29:56.907Z,27.70
2018-05-07T05:32:27.472Z,26.60
2018-05-07T05:34:58.034Z,25.90
2018-05-07T05:37:28.648Z,24.90
2018-05-07T05:39:58.896Z,24.80
2018-05-07T05:42:30.335Z,24.40
2018-05-07T05:45:05.280Z,24.00
2018-05-07T05:47:34.973Z,23.50
2018-05-07T05:50:05.204Z,23.20
2018-05-07T05:52:35.568Z,22.90
2018-05-07T05:55:05.251Z,22.30
2018-05-07T05:57:35.281Z,21.80
2018-05-07T06:00:05.756Z,21.50
2018-05-07T06:02:35.807Z,21.30
2018-05-07T06:05:08.051Z,20.90
2018-05-07T06:07:38.190Z,20.60
2018-05-07T06:10:12.097Z,20.00
2018-05-07T06:12:42.214Z,19.00
2018-05-07T06:15:12.268Z,19.70
2018-05-07T06:17:42.364Z,19.40
2018-05-07T06:20:12.919Z,20.00
2018-05-07T06:22:42.892Z,20.20
2018-05-07T06:25:13.348Z,19.30
2018-05-07T06:27:43.558Z,20.00
2018-05-07T06:30:13.279Z,19.80
2018-05-07T06:32:43.796Z,20.40
2018-05-07T06:35:13.811Z,21.20
2018-05-07T06:37:43.988Z,20.30
2018-05-07T06:40:14.321Z,19.30
2018-05-07T06:42:44.588Z,20.10
2018-05-07T06:45:15.627Z,20.00
2018-05-07T06:47:58.345Z,20.00
2018-05-07T06:50:28.471Z,19.30
2018-05-07T06:53:13.180Z,19.50
2018-05-07T06:55:43.545Z,19.00
2018-05-07T06:58:13.780Z,18.60
2018-05-07T07:00:43.943Z,18.70
2018-05-07T07:03:20.060Z,18.40
2018-05-07T07:05:50.176Z,18.50
2018-05-07T07:08:19.921Z,18.30
2018-05-07T07:10:50.212Z,18.00
2018-05-07T07:13:20.298Z,18.60
2018-05-07T07:15:50.399Z,18.30
2018-05-07T07:18:20.468Z,18.10
2018-05-07T07:20:50.676Z,18.10
2018-05-07T07:23:21.139Z,18.10
2018-05-07T07:25:51.915Z,18.20
2018-05-07T07:28:22.268Z,18.20
2018-05-07T07:30:52.758Z,18.90
2018-05-07T07:33:22.828Z,18.90
2018-05-07T07:35:52.834Z,18.70
2018-05-07T07:38:23.626Z,18.50
2018-05-07T07:40:53.339Z,18.10
2018-05-07T07:43:23.427Z,18.50
2018-05-07T07:45:53.544Z,18.40
2018-05-07T07:48:39.116Z,18.60
2018-05-07T07:51:09.283Z,19.10
2018-05-07T07:53:39.447Z,18.80
2018-05-07T07:56:09.272Z,19.00
2018-05-07T07:58:38.977Z,19.30
2018-05-07T08:01:09.100Z,18.70
2018-05-07T08:03:39.221Z,19.40
2018-05-07T08:06:08.932Z,19.10
2018-05-07T08:08:38.690Z,18.90
2018-05-07T08:11:08.980Z,19.10
2018-05-07T08:13:39.209Z,19.10
2018-05-07T08:16:09.803Z,19.70
2018-05-07T08:18:39.911Z,19.60
2018-05-07T08:21:10.071Z,19.70
2018-05-07T08:23:40.171Z,20.20
2018-05-07T08:26:10.400Z,21.10
2018-05-07T08:28:41.069Z,21.60
2018-05-07T08:31:23.438Z,22.30
2018-05-07T08:33:53.563Z,22.50
2018-05-07T08:36:23.575Z,22.60
2018-05-07T08:38:53.700Z,22.60
2018-05-07T08:41:23.868Z,22.80
2018-05-07T08:44:07.965Z,22.90
2018-05-07T08:46:38.095Z,22.50
2018-05-07T08:49:08.244Z,22.50
2018-05-07T08:51:38.365Z,22.10
2018-05-07T08:54:08.526Z,21.60
2018-05-07T08:56:38.604Z,21.40
2018-05-07T08:59:08.687Z,21.20
2018-05-07T09:01:40.227Z,20.80
2018-05-07T09:04:10.271Z,20.50
2018-05-07T09:06:40.311Z,20.80
2018-05-07T09:09:17.143Z,21.10
2018-05-07T09:11:47.380Z,21.00
2018-05-07T09:14:17.474Z,21.10
2018-05-07T09:16:47.673Z,20.90
2018-05-07T09:19:17.383Z,20.80
2018-05-07T09:21:47.425Z,20.60
2018-05-07T09:24:23.024Z,20.40
2018-05-07T09:29:29.946Z,20.70
2018-05-07T09:32:03.997Z,20.80
2018-05-07T09:34:34.039Z,20.40
2018-05-07T09:37:04.080Z,20.70
2018-05-07T09:39:34.153Z,20.50
2018-05-07T09:42:04.240Z,20.70
2018-05-07T09:44:33.990Z,20.50
2018-05-07T09:47:09.471Z,21.00
2018-05-07T09:49:39.552Z,21.10
2018-05-07T09:52:09.582Z,21.00
2018-05-07T09:54:39.669Z,21.10
2018-05-07T09:57:14.939Z,20.80
2018-05-07T09:59:45.038Z,21.30
2018-05-07T10:02:15.832Z,21.30
2018-05-07T10:04:45.911Z,21.30
2018-05-07T10:07:15.915Z,21.00
2018-05-07T10:09:49.112Z,21.30
2018-05-07T10:15:00.113Z,22.00
2018-05-07T10:17:31.273Z,21.20
2018-05-07T10:20:01.000Z,20.70
2018-05-07T10:22:31.407Z,20.80
2018-05-07T10:25:02.242Z,20.70
2018-05-07T10:27:32.668Z,22.80
2018-05-07T10:30:05.405Z,21.60
2018-05-07T10:32:35.591Z,21.50
2018-05-07T10:35:06.443Z,22.00
2018-05-07T10:37:37.524Z,21.80
2018-05-07T10:40:08.451Z,20.40
2018-05-07T10:42:39.127Z,21.70
2018-05-07T10:45:08.835Z,21.60
2018-05-07T10:47:55.605Z,22.00
2018-05-07T10:50:27.144Z,22.90
2018-05-07T10:52:57.729Z,22.60
2018-05-07T10:55:27.834Z,22.50
2018-05-07T10:58:02.803Z,21.90
2018-05-07T11:00:32.550Z,22.60
2018-05-07T11:03:04.405Z,22.40
2018-05-07T11:05:35.487Z,22.80
2018-05-07T11:08:08.058Z,24.10
2018-05-07T11:10:39.185Z,22.80
2018-05-07T11:13:10.592Z,22.20
2018-05-07T11:15:41.156Z,21.90
2018-05-07T11:18:12.036Z,22.00
2018-05-07T11:20:42.324Z,21.50
2018-05-07T11:23:13.059Z,21.60
2018-05-07T11:25:43.328Z,21.80
2018-05-07T11:31:12.113Z,22.30
2018-05-07T11:33:42.552Z,21.80
2018-05-07T11:36:12.276Z,21.70
2018-05-07T11:38:42.356Z,21.60
2018-05-07T11:41:12.428Z,21.90
2018-05-07T11:43:42.619Z,21.30
2018-05-07T11:46:12.472Z,21.00
2018-05-07T11:48:42.608Z,20.80
2018-05-07T11:51:13.213Z,20.90
2018-05-07T11:53:44.074Z,21.20
2018-05-07T11:56:14.145Z,21.00
2018-05-07T11:58:47.402Z,21.50
2018-05-07T12:01:18.793Z,21.80
2018-05-07T12:03:49.316Z,21.60
2018-05-07T12:06:19.672Z,21.70
2018-05-07T12:08:50.583Z,21.50
2018-05-07T12:11:21.749Z,22.50
2018-05-07T12:13:52.641Z,21.30
2018-05-07T12:16:24.386Z,22.20
2018-05-07T12:19:09.099Z,21.70
2018-05-07T12:21:39.212Z,20.80
2018-05-07T12:24:09.085Z,21.00
2018-05-07T12:26:39.140Z,21.00
2018-05-07T12:29:10.552Z,21.10
2018-05-07T12:31:41.546Z,21.60
2018-05-07T12:34:11.876Z,22.10
2018-05-07T12:36:46.087Z,22.40
2018-05-07T12:39:16.244Z,22.10
2018-05-07T12:41:46.323Z,22.50
2018-05-07T12:44:16.427Z,22.30
2018-05-07T12:46:46.564Z,21.70
2018-05-07T12:49:16.674Z,22.40
2018-05-07T12:51:46.799Z,22.10
2018-05-07T12:54:16.915Z,21.90
2018-05-07T12:56:49.171Z,22.20
2018-05-07T12:59:19.501Z,22.00
2018-05-07T13:01:49.663Z,22.40
2018-05-07T13:04:19.780Z,22.50
2018-05-07T13:06:49.968Z,22.00
2018-05-07T13:09:20.020Z,22.20
2018-05-07T13:11:53.088Z,22.30
2018-05-07T13:14:23.403Z,22.60
2018-05-07T13:16:53.455Z,22.70
2018-05-07T13:19:23.563Z,22.90
2018-05-07T13:21:53.656Z,23.10
2018-05-07T13:24:23.784Z,22.80
2018-05-07T13:26:55.628Z,21.90
2018-05-07T13:29:26.081Z,22.60
2018-05-07T13:31:56.240Z,22.80
2018-05-07T13:34:26.312Z,23.40
2018-05-07T13:36:56.450Z,24.10
2018-05-07T13:39:26.252Z,24.40
2018-05-07T13:42:10.810Z,26.50
2018-05-07T13:44:40.712Z,25.50
2018-05-07T13:47:10.779Z,25.90
2018-05-07T13:49:40.964Z,26.20
2018-05-07T13:52:10.670Z,25.10
2018-05-07T13:54:40.788Z,26.10
2018-05-07T13:57:10.918Z,26.30
2018-05-07T13:59:43.965Z,26.60
2018-05-07T14:05:15.072Z,27.30
2018-05-07T14:07:45.190Z,27.10
2018-05-07T14:10:16.346Z,27.20
2018-05-07T14:12:46.442Z,27.80
2018-05-07T14:15:17.026Z,27.50
2018-05-07T14:17:55.699Z,27.40
2018-05-07T14:20:26.709Z,28.00
2018-05-07T14:22:59.532Z,28.50
2018-05-07T14:25:30.913Z,27.80
2018-05-07T14:28:07.133Z,27.90
2018-05-07T14:30:37.776Z,27.70
2018-05-07T14:33:08.642Z,28.00
2018-05-07T14:35:39.512Z,29.30
2018-05-07T14:38:10.369Z,28.80
2018-05-07T14:40:41.416Z,29.50
2018-05-07T14:43:11.465Z,29.80
2018-05-07T14:45:42.853Z,29.20
2018-05-07T14:48:13.213Z,29.60
2018-05-07T14:50:43.417Z,29.60
2018-05-07T14:53:25.852Z,30.10
2018-05-07T14:56:01.083Z,29.00
2018-05-07T14:58:31.325Z,29.80
2018-05-07T15:01:09.605Z,30.40
2018-05-07T15:06:56.952Z,29.10
2018-05-07T15:09:32.523Z,28.30
2018-05-07T15:12:03.763Z,28.50
2018-05-07T15:14:34.280Z,29.00
2018-05-07T15:17:13.081Z,29.40
2018-05-07T15:19:43.686Z,29.10
2018-05-07T15:22:15.861Z,28.60
2018-05-07T15:24:47.343Z,29.00
2018-05-07T15:27:17.853Z,29.00
2018-05-07T15:29:48.114Z,28.90
2018-05-07T15:32:20.769Z,29.10
2018-05-07T15:34:52.572Z,29.60
2018-05-07T15:37:25.112Z,29.30
2018-05-07T15:39:56.157Z,29.30
2018-05-07T15:42:29.571Z,29.20
2018-05-07T15:45:00.961Z,29.00
2018-05-07T15:47:31.248Z,30.90
2018-05-07T15:50:01.832Z,28.70
2018-05-07T15:52:33.055Z,28.90
2018-05-07T15:55:04.605Z,28.80
2018-05-07T15:57:35.490Z,29.20
2018-05-07T16:00:07.486Z,28.60
2018-05-07T16:02:37.707Z,28.30
2018-05-07T16:05:08.152Z,28.50
2018-05-07T16:07:39.008Z,28.80
2018-05-07T16:10:11.518Z,29.00
2018-05-07T16:12:42.240Z,28.80
2018-05-07T16:15:13.048Z,29.00
2018-05-07T16:17:43.642Z,29.30
2018-05-07T16:20:19.587Z,29.20
2018-05-07T16:22:50.988Z,29.10
2018-05-07T16:25:21.212Z,29.40
2018-05-07T16:27:51.729Z,28.80
2018-05-07T16:30:21.844Z,28.60
2018-05-07T16:33:01.380Z,28.70
2018-05-07T16:35:31.587Z,29.00
2018-05-07T16:38:01.528Z,28.60
2018-05-07T16:40:31.990Z,28.80
2018-05-07T16:43:19.558Z,29.00
2018-05-07T16:45:50.007Z,28.30
2018-05-07T16:48:20.437Z,28.60
2018-05-07T16:50:50.666Z,28.70
2018-05-07T16:56:03.104Z,28.70
2018-05-07T16:58:33.839Z,28.70
2018-05-07T17:01:04.607Z,29.30
2018-05-07T17:03:35.782Z,28.90
2018-05-07T17:06:06.103Z,28.80
2018-05-07T17:08:38.053Z,28.80
2018-05-07T17:11:15.762Z,29.50
2018-05-07T17:13:49.462Z,29.80
2018-05-07T17:19:08.431Z,29.80
2018-05-07T17:21:40.177Z,29.80
2018-05-07T17:24:14.434Z,29.60
2018-05-07T17:26:56.477Z,30.10
2018-05-07T17:29:28.477Z,30.30
2018-05-07T17:32:03.880Z,30.40
2018-05-07T17:34:35.214Z,30.40
2018-05-07T17:37:05.628Z,31.20
2018-05-07T17:39:42.503Z,31.30
2018-05-07T17:42:15.520Z,31.40
2018-05-07T17:45:03.054Z,31.60
2018-05-07T17:47:44.742Z,31.90
2018-05-07T17:50:17.371Z,31.40
2018-05-07T17:52:51.709Z,32.00
2018-05-07T17:55:34.895Z,32.30
2018-05-07T17:58:06.176Z,32.60
2018-05-07T18:00:38.589Z,32.60
2018-05-07T18:03:41.458Z,32.80
2018-05-07T18:06:14.957Z,33.00
2018-05-07T18:08:47.975Z,33.30
2018-05-07T18:11:23.880Z,33.80
2018-05-07T18:14:06.208Z,34.00
2018-05-07T18:16:39.092Z,34.20
2018-05-07T18:19:11.867Z,34.10
2018-05-07T18:21:44.955Z,35.10
2018-05-07T18:24:16.413Z,35.60
2018-05-07T18:26:49.899Z,36.90
2018-05-07T18:29:22.269Z,37.20
2018-05-07T18:31:56.795Z,37.70
2018-05-07T18:34:28.912Z,37.60
2018-05-07T18:39:41.718Z,38.30
2018-05-07T18:42:18.060Z,38.70
2018-05-07T18:44:52.140Z,38.90
2018-05-07T18:47:26.584Z,39.10
2018-05-07T18:50:03.541Z,39.60
2018-05-07T18:52:36.533Z,40.20
2018-05-07T18:55:09.875Z,40.40
2018-05-07T18:57:44.888Z,40.50
2018-05-07T19:00:17.871Z,40.60
2018-05-07T19:02:52.314Z,41.00
2018-05-07T19:05:27.316Z,41.20
2018-05-07T19:08:02.286Z,41.80
2018-05-07T19:10:36.507Z,41.40
2018-05-07T19:13:10.927Z,41.90
2018-05-07T19:15:43.865Z,41.70
2018-05-07T19:18:15.358Z,41.70
2018-05-07T19:20:50.148Z,41.80
2018-05-07T19:23:22.717Z,41.70
2018-05-07T19:25:55.096Z,42.20
2018-05-07T19:28:32.120Z,42.50
2018-05-07T19:31:05.184Z,42.70
2018-05-07T19:33:38.660Z,42.80
2018-05-07T19:36:13.098Z,42.60
2018-05-07T19:38:53.654Z,42.60
2018-05-07T19:41:27.051Z,42.80
2018-05-07T19:44:05.819Z,42.60
2018-05-07T19:46:40.842Z,42.60
2018-05-07T19:49:16.677Z,43.10
2018-05-07T19:51:49.641Z,43.70
2018-05-07T19:54:24.096Z,44.70
2018-05-07T19:56:56.058Z,44.20
2018-05-07T19:59:29.325Z,45.10
2018-05-07T20:02:05.536Z,45.40
2018-05-07T20:04:44.496Z,45.80
2018-05-07T20:07:17.399Z,46.20
2018-05-07T20:09:50.798Z,46.50
2018-05-07T20:12:23.313Z,46.50
2018-05-07T20:14:54.966Z,46.40
2018-05-07T20:17:27.942Z,46.80
2018-05-07T20:20:01.927Z,47.00
2018-05-07T20:22:33.660Z,47.20
2018-05-07T20:25:05.160Z,47.50
2018-05-07T20:27:37.012Z,47.50
2018-05-07T20:30:08.115Z,47.50
2018-05-07T20:32:41.817Z,47.50
2018-05-07T20:35:14.485Z,48.00
2018-05-07T20:37:46.958Z,48.30
2018-05-07T20:40:19.749Z,48.90
2018-05-07T20:42:51.561Z,49.30
2018-05-07T20:45:25.286Z,49.30
2018-05-07T20:47:57.773Z,49.40
2018-05-07T20:50:29.620Z,49.60
2018-05-07T20:53:01.507Z,49.70
2018-05-07T20:55:33.014Z,50.00
2018-05-07T20:58:04.874Z,50.50
2018-05-07T21:00:35.197Z,50.60
2018-05-07T21:03:06.009Z,50.70
2018-05-07T21:05:37.103Z,51.20
2018-05-07T21:08:07.326Z,51.20
2018-05-07T21:10:37.793Z,51.50
2018-05-07T21:13:08.231Z,51.40
2018-05-07T21:15:38.986Z,51.70
2018-05-07T21:18:09.622Z,52.10
2018-05-07T21:20:40.035Z,52.40
2018-05-07T21:23:10.370Z,52.50
2018-05-07T21:25:40.513Z,52.80
2018-05-07T21:28:10.730Z,53.00
2018-05-07T21:30:40.841Z,53.20
2018-05-07T21:33:11.072Z,53.50
2018-05-07T21:35:41.588Z,53.70
2018-05-07T21:38:11.937Z,53.80
2018-05-07T21:40:44.352Z,53.90
2018-05-07T21:43:14.412Z,53.90
2018-05-07T21:45:45.344Z,54.20
2018-05-07T21:48:15.567Z,54.60
2018-05-07T21:50:45.810Z,54.60
2018-05-07T21:53:16.331Z,56.10
2018-05-07T21:55:47.477Z,54.00
2018-05-07T21:58:17.550Z,53.70
2018-05-07T22:00:48.708Z,53.30
2018-05-07T22:03:18.854Z,53.10
2018-05-07T22:05:49.321Z,53.00
2018-05-07T22:08:19.309Z,53.00
2018-05-07T22:10:50.137Z,53.00
2018-05-07T22:13:20.303Z,52.80
2018-05-07T22:15:51.379Z,52.70
2018-05-07T22:18:23.260Z,52.50
2018-05-07T22:20:55.813Z,52.60
2018-05-07T22:23:25.958Z,52.20
2018-05-07T22:25:56.185Z,52.50
2018-05-07T22:28:26.304Z,53.10
2018-05-07T22:30:56.533Z,54.10
2018-05-07T22:33:26.357Z,54.90
2018-05-07T22:35:56.156Z,55.30
2018-05-07T22:38:26.288Z,55.80
2018-05-07T22:40:56.084Z,55.90
2018-05-07T22:43:26.193Z,56.20
2018-05-07T22:45:56.317Z,56.20
2018-05-07T22:48:26.554Z,56.50
2018-05-07T22:50:57.446Z,56.80
2018-05-07T22:53:27.132Z,56.90
2018-05-07T22:55:57.317Z,57.20
2018-05-07T22:58:27.477Z,57.20
2018-05-07T23:00:57.606Z,57.00
2018-05-07T23:03:27.685Z,56.60
2018-05-07T23:05:57.990Z,55.90
2018-05-07T23:08:29.863Z,55.80
2018-05-07T23:11:00.803Z,55.60
2018-05-07T23:13:31.631Z,54.80
2018-05-07T23:16:04.223Z,54.50
2018-05-07T23:18:35.223Z,54.10
2018-05-07T23:21:06.784Z,53.90
2018-05-07T23:23:37.449Z,53.70
2018-05-07T23:26:07.785Z,53.70
2018-05-07T23:28:38.914Z,53.30
2018-05-07T23:31:11.751Z,53.90
2018-05-07T23:33:42.071Z,53.10
2018-05-07T23:36:13.173Z,53.00
2018-05-07T23:38:44.000Z,53.00
2018-05-07T23:41:14.747Z,52.90
2018-05-07T23:43:46.374Z,53.20
2018-05-07T23:46:16.477Z,53.30
2018-05-07T23:48:48.013Z,53.80
2018-05-07T23:51:18.607Z,53.30
2018-05-07T23:53:48.815Z,53.40
2018-05-07T23:56:19.652Z,54.00
2018-05-07T23:58:52.156Z,53.90
